UTA137 USRR-UNNT
Flight info
| Callsign | UTA137 |
|---|---|
| Flight time | 1h 22m |
| Altitude | 33000 |
| Route | KARPO1W KARPO R229 XV B228 MINOR B925 LAMGA LAMGA1A |
| Aircraft | T154/M-SDGRWY/LB1 |
Departure
| Time | 2026-04-27 12:35 |
|---|---|
| Airport | Surgut International Airport (USRR) |
Arrival
| Time | 2026-04-27 13:57 |
|---|---|
| Airport | Novosibirsk Tolmachevo Airport (UNNT) |
| Time | Latitude | Longitude | Altitude | Speed | Heading |
|---|---|---|---|---|---|
| 2026-04-27 12:01 | 61.34126 | 73.40346 | 192 ft | 0 kts | 180° |
| 2026-04-27 12:27 | 61.34123 | 73.40346 | 192 ft | 1 kts | 180° |
| 2026-04-27 12:27 | 61.34113 | 73.40345 | 192 ft | 2 kts | 187° |
| 2026-04-27 12:28 | 61.34086 | 73.40323 | 191 ft | 5 kts | 220° |
| 2026-04-27 12:28 | 61.34073 | 73.40248 | 191 ft | 5 kts | 268° |
| 2026-04-27 12:28 | 61.34074 | 73.40210 | 190 ft | 1 kts | 282° |
| 2026-04-27 12:28 | 61.34088 | 73.40154 | 191 ft | 8 kts | 308° |
| 2026-04-27 12:29 | 61.34163 | 73.40127 | 193 ft | 8 kts | 40° |
| 2026-04-27 12:29 | 61.34178 | 73.40220 | 194 ft | 5 kts | 89° |
| 2026-04-27 12:29 | 61.34179 | 73.40336 | 194 ft | 9 kts | 89° |
| 2026-04-27 12:29 | 61.34180 | 73.40512 | 194 ft | 13 kts | 89° |
| 2026-04-27 12:30 | 61.34181 | 73.40736 | 196 ft | 16 kts | 88° |
| 2026-04-27 12:30 | 61.34181 | 73.41011 | 196 ft | 21 kts | 90° |
| 2026-04-27 12:30 | 61.34183 | 73.41362 | 194 ft | 26 kts | 89° |
| 2026-04-27 12:30 | 61.34185 | 73.41789 | 192 ft | 32 kts | 89° |
| 2026-04-27 12:31 | 61.34187 | 73.42207 | 187 ft | 27 kts | 89° |
| 2026-04-27 12:31 | 61.34232 | 73.42489 | 186 ft | 13 kts | 35° |
| 2026-04-27 12:31 | 61.34253 | 73.42517 | 186 ft | 0 kts | 30° |
| 2026-04-27 12:32 | 61.34253 | 73.42518 | 186 ft | 0 kts | 30° |
| 2026-04-27 12:32 | 61.34264 | 73.42531 | 186 ft | 2 kts | 29° |
| 2026-04-27 12:32 | 61.34295 | 73.42568 | 186 ft | 7 kts | 31° |
| 2026-04-27 12:33 | 61.34363 | 73.42635 | 186 ft | 12 kts | 1° |
| 2026-04-27 12:33 | 61.34394 | 73.42549 | 186 ft | 6 kts | 273° |
| 2026-04-27 12:33 | 61.34395 | 73.42520 | 186 ft | 0 kts | 270° |
| 2026-04-27 12:33 | 61.34395 | 73.42519 | 186 ft | 0 kts | 270° |
| 2026-04-27 12:34 | 61.34395 | 73.42481 | 186 ft | 17 kts | 270° |
| 2026-04-27 12:34 | 61.34392 | 73.41553 | 195 ft | 104 kts | 270° |
| 2026-04-27 12:34 | 61.34385 | 73.39414 | 299 ft | 168 kts | 269° |
| 2026-04-27 12:34 | 61.34384 | 73.36655 | 784 ft | 199 kts | 271° |
| 2026-04-27 12:35 | 61.34423 | 73.33522 | 1311 ft | 219 kts | 271° |
| 2026-04-27 12:35 | 61.34348 | 73.30235 | 1727 ft | 225 kts | 262° |
| 2026-04-27 12:35 | 61.33776 | 73.27409 | 2351 ft | 216 kts | 230° |
| 2026-04-27 12:35 | 61.32465 | 73.25573 | 2747 ft | 228 kts | 197° |
| 2026-04-27 12:36 | 61.30768 | 73.25525 | 3007 ft | 243 kts | 163° |
| 2026-04-27 12:36 | 61.29315 | 73.27321 | 3276 ft | 228 kts | 137° |
| 2026-04-27 12:36 | 61.27987 | 73.29623 | 3778 ft | 244 kts | 145° |
| 2026-04-27 12:36 | 61.26492 | 73.31779 | 4534 ft | 271 kts | 143° |
| 2026-04-27 12:37 | 61.25003 | 73.34210 | 5801 ft | 274 kts | 141° |
| 2026-04-27 12:37 | 61.23533 | 73.36631 | 7183 ft | 271 kts | 141° |
| 2026-04-27 12:37 | 61.22069 | 73.39110 | 8417 ft | 273 kts | 140° |
| 2026-04-27 12:37 | 61.20567 | 73.41695 | 9523 ft | 280 kts | 140° |
| 2026-04-27 12:38 | 61.19023 | 73.44379 | 10572 ft | 288 kts | 140° |
| 2026-04-27 12:38 | 61.17446 | 73.47131 | 11668 ft | 293 kts | 139° |
| 2026-04-27 12:38 | 61.15874 | 73.49881 | 12762 ft | 297 kts | 139° |
| 2026-04-27 12:38 | 61.14274 | 73.52683 | 13784 ft | 302 kts | 139° |
| 2026-04-27 12:39 | 61.12622 | 73.55579 | 14681 ft | 312 kts | 139° |
| 2026-04-27 12:39 | 61.10928 | 73.58551 | 15477 ft | 324 kts | 139° |
| 2026-04-27 12:39 | 61.09147 | 73.61678 | 16343 ft | 335 kts | 139° |
| 2026-04-27 12:39 | 61.07355 | 73.64825 | 17253 ft | 343 kts | 139° |
| 2026-04-27 12:40 | 61.05469 | 73.68145 | 18004 ft | 356 kts | 140° |
| 2026-04-27 12:40 | 61.03465 | 73.71673 | 18681 ft | 371 kts | 140° |
| 2026-04-27 12:40 | 61.01413 | 73.75285 | 19521 ft | 381 kts | 140° |
| 2026-04-27 12:40 | 60.99358 | 73.78899 | 20416 ft | 387 kts | 140° |
| 2026-04-27 12:41 | 60.97259 | 73.82594 | 21315 ft | 394 kts | 140° |
| 2026-04-27 12:41 | 60.95153 | 73.86301 | 22139 ft | 401 kts | 140° |
| 2026-04-27 12:41 | 60.93001 | 73.90088 | 23002 ft | 407 kts | 140° |
| 2026-04-27 12:41 | 60.90803 | 73.93954 | 23895 ft | 412 kts | 140° |
| 2026-04-27 12:42 | 60.88599 | 73.97827 | 24728 ft | 418 kts | 140° |
| 2026-04-27 12:42 | 60.86355 | 74.01752 | 25510 ft | 424 kts | 139° |
| 2026-04-27 12:42 | 60.84070 | 74.05713 | 26319 ft | 429 kts | 142° |
| 2026-04-27 12:42 | 60.81546 | 74.09051 | 27137 ft | 433 kts | 151° |
| 2026-04-27 12:43 | 60.78831 | 74.12036 | 27973 ft | 437 kts | 152° |
| 2026-04-27 12:43 | 60.76112 | 74.15005 | 28805 ft | 440 kts | 152° |
| 2026-04-27 12:43 | 60.73394 | 74.18030 | 29643 ft | 443 kts | 151° |
| 2026-04-27 12:43 | 60.70684 | 74.21095 | 30471 ft | 444 kts | 151° |
| 2026-04-27 12:44 | 60.67969 | 74.24191 | 31284 ft | 446 kts | 151° |
| 2026-04-27 12:44 | 60.65187 | 74.27362 | 31754 ft | 456 kts | 151° |
| 2026-04-27 12:44 | 60.62356 | 74.30582 | 32241 ft | 465 kts | 151° |
| 2026-04-27 12:44 | 60.59504 | 74.33818 | 32764 ft | 471 kts | 151° |
| 2026-04-27 12:45 | 60.56590 | 74.37150 | 33172 ft | 481 kts | 150° |
| 2026-04-27 12:45 | 60.53611 | 74.40574 | 33027 ft | 498 kts | 150° |
| 2026-04-27 12:45 | 60.50548 | 74.44089 | 33063 ft | 492 kts | 150° |
| 2026-04-27 12:46 | 60.44414 | 74.51094 | 33062 ft | 500 kts | 150° |
| 2026-04-27 12:46 | 60.38294 | 74.58045 | 33071 ft | 501 kts | 150° |
| 2026-04-27 12:47 | 60.32153 | 74.64971 | 33069 ft | 501 kts | 151° |
| 2026-04-27 12:47 | 60.25973 | 74.71934 | 33070 ft | 500 kts | 152° |
| 2026-04-27 12:48 | 60.19816 | 74.78848 | 33068 ft | 500 kts | 152° |
| 2026-04-27 12:48 | 60.13646 | 74.85740 | 33163 ft | 506 kts | 152° |
| 2026-04-27 12:49 | 60.07422 | 74.92664 | 33165 ft | 504 kts | 152° |
| 2026-04-27 12:49 | 60.01251 | 74.99497 | 33160 ft | 504 kts | 152° |
| 2026-04-27 12:50 | 59.95007 | 75.06382 | 33160 ft | 504 kts | 152° |
| 2026-04-27 12:50 | 59.88781 | 75.13215 | 33137 ft | 505 kts | 152° |
| 2026-04-27 12:51 | 59.82594 | 75.19945 | 33160 ft | 504 kts | 152° |
| 2026-04-27 12:51 | 59.76383 | 75.26693 | 33158 ft | 504 kts | 152° |
| 2026-04-27 12:52 | 59.70148 | 75.33449 | 33158 ft | 504 kts | 152° |
| 2026-04-27 12:52 | 59.63950 | 75.40138 | 33156 ft | 504 kts | 152° |
| 2026-04-27 12:53 | 59.54585 | 75.50192 | 33182 ft | 504 kts | 152° |
| 2026-04-27 12:53 | 59.48362 | 75.56838 | 33184 ft | 504 kts | 152° |
| 2026-04-27 12:54 | 59.42119 | 75.63477 | 33184 ft | 504 kts | 152° |
| 2026-04-27 12:54 | 59.35922 | 75.70060 | 33190 ft | 504 kts | 153° |
| 2026-04-27 12:55 | 59.29680 | 75.76662 | 33188 ft | 504 kts | 153° |
| 2026-04-27 12:55 | 59.23437 | 75.83221 | 33188 ft | 504 kts | 153° |
| 2026-04-27 12:56 | 59.17176 | 75.89769 | 33187 ft | 504 kts | 153° |
| 2026-04-27 12:56 | 59.10934 | 75.96413 | 33186 ft | 504 kts | 152° |
| 2026-04-27 12:57 | 59.04725 | 76.03017 | 33187 ft | 504 kts | 152° |
| 2026-04-27 12:57 | 58.98488 | 76.09609 | 33189 ft | 505 kts | 152° |
| 2026-04-27 12:58 | 58.92216 | 76.16203 | 33184 ft | 505 kts | 152° |
| 2026-04-27 12:58 | 58.85982 | 76.22716 | 33178 ft | 505 kts | 152° |
| 2026-04-27 12:59 | 58.79738 | 76.29204 | 33182 ft | 505 kts | 152° |
| 2026-04-27 12:59 | 58.73469 | 76.35709 | 33184 ft | 505 kts | 152° |
| 2026-04-27 13:00 | 58.67238 | 76.42152 | 33181 ft | 505 kts | 152° |
| 2026-04-27 13:00 | 58.60966 | 76.48610 | 33182 ft | 505 kts | 152° |
| 2026-04-27 13:01 | 58.55246 | 76.56537 | 33197 ft | 507 kts | 135° |
| 2026-04-27 13:01 | 58.50583 | 76.66904 | 33173 ft | 507 kts | 131° |
| 2026-04-27 13:02 | 58.45802 | 76.77055 | 33185 ft | 507 kts | 134° |
| 2026-04-27 13:02 | 58.40902 | 76.86932 | 33183 ft | 507 kts | 134° |
| 2026-04-27 13:03 | 58.35973 | 76.96738 | 33184 ft | 507 kts | 134° |
| 2026-04-27 13:03 | 58.31039 | 77.06500 | 33182 ft | 507 kts | 134° |
| 2026-04-27 13:04 | 58.26071 | 77.16283 | 33182 ft | 507 kts | 134° |
| 2026-04-27 13:04 | 58.21126 | 77.25978 | 33182 ft | 507 kts | 134° |
| 2026-04-27 13:05 | 58.16154 | 77.35685 | 33183 ft | 507 kts | 134° |
| 2026-04-27 13:05 | 58.11174 | 77.45365 | 33180 ft | 507 kts | 134° |
| 2026-04-27 13:06 | 58.06200 | 77.54991 | 33181 ft | 507 kts | 134° |
| 2026-04-27 13:06 | 58.01206 | 77.64619 | 33181 ft | 507 kts | 134° |
| 2026-04-27 13:07 | 57.96244 | 77.74168 | 33193 ft | 507 kts | 135° |
| 2026-04-27 13:07 | 57.91246 | 77.83735 | 33187 ft | 507 kts | 135° |
| 2026-04-27 13:08 | 57.86209 | 77.93288 | 33183 ft | 507 kts | 135° |
| 2026-04-27 13:08 | 57.81192 | 78.02756 | 33182 ft | 507 kts | 135° |
| 2026-04-27 13:09 | 57.76161 | 78.12244 | 33182 ft | 507 kts | 135° |
| 2026-04-27 13:09 | 57.71156 | 78.21648 | 33181 ft | 507 kts | 135° |
| 2026-04-27 13:10 | 57.66102 | 78.31109 | 33181 ft | 507 kts | 135° |
| 2026-04-27 13:10 | 57.61070 | 78.40487 | 33182 ft | 507 kts | 135° |
| 2026-04-27 13:11 | 57.56017 | 78.49868 | 33180 ft | 507 kts | 135° |
| 2026-04-27 13:11 | 57.50932 | 78.59268 | 33187 ft | 515 kts | 135° |
| 2026-04-27 13:12 | 57.45799 | 78.68725 | 33170 ft | 514 kts | 135° |
| 2026-04-27 13:12 | 57.40617 | 78.78253 | 33182 ft | 515 kts | 135° |
| 2026-04-27 13:13 | 57.35464 | 78.87668 | 33182 ft | 515 kts | 135° |
| 2026-04-27 13:13 | 57.30276 | 78.97098 | 33183 ft | 515 kts | 135° |
| 2026-04-27 13:14 | 57.25085 | 79.06507 | 33184 ft | 515 kts | 134° |
| 2026-04-27 13:14 | 57.20744 | 79.17515 | 33200 ft | 515 kts | 121° |
| 2026-04-27 13:15 | 57.16925 | 79.28803 | 33190 ft | 514 kts | 122° |
| 2026-04-27 13:15 | 57.12927 | 79.39963 | 33187 ft | 514 kts | 123° |
| 2026-04-27 13:16 | 57.08912 | 79.50954 | 33187 ft | 514 kts | 123° |
| 2026-04-27 13:16 | 57.04865 | 79.61970 | 33185 ft | 514 kts | 123° |
| 2026-04-27 13:17 | 57.00790 | 79.73023 | 33187 ft | 515 kts | 124° |
| 2026-04-27 13:17 | 56.96641 | 79.84222 | 33186 ft | 515 kts | 124° |
| 2026-04-27 13:18 | 56.92517 | 79.95287 | 33186 ft | 510 kts | 124° |
| 2026-04-27 13:18 | 56.90528 | 80.00602 | 33170 ft | 493 kts | 124° |
| 2026-04-27 13:18 | 56.88594 | 80.05742 | 33164 ft | 480 kts | 124° |
| 2026-04-27 13:19 | 56.86696 | 80.10746 | 33179 ft | 469 kts | 124° |
| 2026-04-27 13:19 | 56.84793 | 80.15768 | 33185 ft | 476 kts | 124° |
| 2026-04-27 13:19 | 56.80991 | 80.25813 | 33181 ft | 474 kts | 124° |
| 2026-04-27 13:20 | 56.77187 | 80.35841 | 33185 ft | 476 kts | 124° |
| 2026-04-27 13:20 | 56.75281 | 80.40852 | 32981 ft | 478 kts | 124° |
| 2026-04-27 13:20 | 56.73374 | 80.45856 | 32751 ft | 475 kts | 124° |
| 2026-04-27 13:21 | 56.71457 | 80.50884 | 32419 ft | 472 kts | 124° |
| 2026-04-27 13:21 | 56.69558 | 80.55851 | 32080 ft | 468 kts | 124° |
| 2026-04-27 13:21 | 56.67713 | 80.60664 | 31568 ft | 463 kts | 124° |
| 2026-04-27 13:21 | 56.65856 | 80.65498 | 30957 ft | 461 kts | 124° |
| 2026-04-27 13:22 | 56.64002 | 80.70328 | 30286 ft | 458 kts | 124° |
| 2026-04-27 13:22 | 56.62162 | 80.75111 | 29626 ft | 455 kts | 124° |
| 2026-04-27 13:22 | 56.60362 | 80.79778 | 28991 ft | 452 kts | 124° |
| 2026-04-27 13:22 | 56.58537 | 80.84494 | 28333 ft | 446 kts | 124° |
| 2026-04-27 13:23 | 56.56752 | 80.89097 | 27680 ft | 441 kts | 124° |
| 2026-04-27 13:23 | 56.54976 | 80.93665 | 27029 ft | 435 kts | 124° |
| 2026-04-27 13:23 | 56.53242 | 80.98118 | 26395 ft | 429 kts | 124° |
| 2026-04-27 13:23 | 56.51514 | 81.02555 | 25761 ft | 424 kts | 124° |
| 2026-04-27 13:24 | 56.49806 | 81.06928 | 25133 ft | 418 kts | 124° |
| 2026-04-27 13:24 | 56.48123 | 81.11223 | 24510 ft | 411 kts | 124° |
| 2026-04-27 13:24 | 56.46460 | 81.15457 | 23705 ft | 405 kts | 124° |
| 2026-04-27 13:24 | 56.44833 | 81.19597 | 22874 ft | 400 kts | 124° |
| 2026-04-27 13:25 | 56.43221 | 81.23687 | 22049 ft | 394 kts | 124° |
| 2026-04-27 13:25 | 56.41612 | 81.27766 | 21227 ft | 388 kts | 124° |
| 2026-04-27 13:25 | 56.40062 | 81.31695 | 20435 ft | 382 kts | 124° |
| 2026-04-27 13:25 | 56.38512 | 81.35620 | 19643 ft | 377 kts | 124° |
| 2026-04-27 13:26 | 56.36995 | 81.39457 | 18869 ft | 373 kts | 124° |
| 2026-04-27 13:26 | 56.35471 | 81.43300 | 18091 ft | 368 kts | 124° |
| 2026-04-27 13:26 | 56.33972 | 81.47071 | 17282 ft | 364 kts | 124° |
| 2026-04-27 13:26 | 56.32501 | 81.50766 | 16490 ft | 358 kts | 124° |
| 2026-04-27 13:27 | 56.31052 | 81.54401 | 15706 ft | 354 kts | 124° |
| 2026-04-27 13:27 | 56.29603 | 81.58024 | 14926 ft | 350 kts | 124° |
| 2026-04-27 13:27 | 56.28175 | 81.61591 | 14159 ft | 345 kts | 124° |
| 2026-04-27 13:27 | 56.26776 | 81.65080 | 13410 ft | 341 kts | 126° |
| 2026-04-27 13:28 | 56.25374 | 81.68587 | 12612 ft | 338 kts | 125° |
| 2026-04-27 13:28 | 56.23998 | 81.72028 | 11828 ft | 333 kts | 126° |
| 2026-04-27 13:28 | 56.22648 | 81.75397 | 11059 ft | 328 kts | 126° |
| 2026-04-27 13:28 | 56.21298 | 81.78754 | 10288 ft | 324 kts | 126° |
| 2026-04-27 13:29 | 56.19977 | 81.82031 | 9536 ft | 321 kts | 126° |
| 2026-04-27 13:29 | 56.18658 | 81.85297 | 8791 ft | 316 kts | 126° |
| 2026-04-27 13:29 | 56.17382 | 81.88453 | 8064 ft | 310 kts | 126° |
| 2026-04-27 13:29 | 56.16111 | 81.91592 | 7332 ft | 305 kts | 126° |
| 2026-04-27 13:30 | 56.14881 | 81.94627 | 6906 ft | 289 kts | 126° |
| 2026-04-27 13:30 | 56.13689 | 81.97561 | 7051 ft | 303 kts | 126° |
| 2026-04-27 13:30 | 56.12439 | 82.00638 | 6998 ft | 295 kts | 126° |
| 2026-04-27 13:30 | 56.11249 | 82.03562 | 7006 ft | 288 kts | 126° |
| 2026-04-27 13:31 | 56.10004 | 82.06618 | 7019 ft | 298 kts | 126° |
| 2026-04-27 13:31 | 56.08786 | 82.09602 | 7004 ft | 288 kts | 126° |
| 2026-04-27 13:31 | 56.07562 | 82.12598 | 7020 ft | 298 kts | 126° |
| 2026-04-27 13:31 | 56.06335 | 82.15598 | 7009 ft | 291 kts | 126° |
| 2026-04-27 13:32 | 56.05122 | 82.18562 | 7013 ft | 297 kts | 126° |
| 2026-04-27 13:32 | 56.03894 | 82.21555 | 7010 ft | 293 kts | 126° |
| 2026-04-27 13:32 | 56.02679 | 82.24518 | 7009 ft | 294 kts | 126° |
| 2026-04-27 13:32 | 56.01276 | 82.27191 | 7020 ft | 294 kts | 143° |
| 2026-04-27 13:33 | 55.99487 | 82.29092 | 7021 ft | 297 kts | 152° |
| 2026-04-27 13:33 | 55.97635 | 82.30831 | 7009 ft | 294 kts | 152° |
| 2026-04-27 13:33 | 55.95830 | 82.32568 | 7010 ft | 294 kts | 151° |
| 2026-04-27 13:33 | 55.93990 | 82.34392 | 7015 ft | 295 kts | 150° |
| 2026-04-27 13:34 | 55.92200 | 82.36198 | 7011 ft | 294 kts | 150° |
| 2026-04-27 13:34 | 55.90390 | 82.38038 | 7012 ft | 295 kts | 150° |
| 2026-04-27 13:34 | 55.88572 | 82.39880 | 7190 ft | 286 kts | 150° |
| 2026-04-27 13:34 | 55.86773 | 82.41694 | 7288 ft | 305 kts | 150° |
| 2026-04-27 13:35 | 55.84946 | 82.43542 | 7237 ft | 293 kts | 150° |
| 2026-04-27 13:35 | 55.83158 | 82.45359 | 7250 ft | 291 kts | 150° |
| 2026-04-27 13:35 | 55.81330 | 82.47122 | 7255 ft | 295 kts | 157° |
| 2026-04-27 13:35 | 55.79319 | 82.47913 | 7258 ft | 290 kts | 176° |
| 2026-04-27 13:36 | 55.77235 | 82.47972 | 7258 ft | 297 kts | 180° |
| 2026-04-27 13:36 | 55.75131 | 82.47978 | 7247 ft | 289 kts | 179° |
| 2026-04-27 13:36 | 55.72916 | 82.48039 | 7261 ft | 295 kts | 178° |
| 2026-04-27 13:36 | 55.70726 | 82.48151 | 7250 ft | 291 kts | 178° |
| 2026-04-27 13:37 | 55.68628 | 82.48283 | 7255 ft | 296 kts | 177° |
| 2026-04-27 13:37 | 55.66539 | 82.48422 | 7252 ft | 292 kts | 177° |
| 2026-04-27 13:37 | 55.64485 | 82.48562 | 7250 ft | 294 kts | 177° |
| 2026-04-27 13:37 | 55.62416 | 82.48704 | 7253 ft | 293 kts | 177° |
| 2026-04-27 13:38 | 55.60352 | 82.48845 | 7251 ft | 293 kts | 177° |
| 2026-04-27 13:38 | 55.58292 | 82.48986 | 7252 ft | 294 kts | 177° |
| 2026-04-27 13:38 | 55.56217 | 82.49127 | 7169 ft | 295 kts | 177° |
| 2026-04-27 13:38 | 55.54140 | 82.49269 | 7056 ft | 293 kts | 177° |
| 2026-04-27 13:39 | 55.52113 | 82.49418 | 6932 ft | 291 kts | 177° |
| 2026-04-27 13:39 | 55.50043 | 82.49588 | 6760 ft | 294 kts | 177° |
| 2026-04-27 13:39 | 55.48008 | 82.49743 | 6600 ft | 291 kts | 177° |
| 2026-04-27 13:39 | 55.45948 | 82.49893 | 6432 ft | 290 kts | 177° |
| 2026-04-27 13:40 | 55.43911 | 82.50042 | 6266 ft | 292 kts | 177° |
| 2026-04-27 13:40 | 55.41867 | 82.50193 | 6114 ft | 290 kts | 176° |
| 2026-04-27 13:40 | 55.39869 | 82.50867 | 5968 ft | 287 kts | 160° |
| 2026-04-27 13:40 | 55.38070 | 82.52540 | 5790 ft | 291 kts | 141° |
| 2026-04-27 13:41 | 55.36630 | 82.55045 | 5630 ft | 288 kts | 134° |
| 2026-04-27 13:41 | 55.35129 | 82.57476 | 5466 ft | 288 kts | 137° |
| 2026-04-27 13:41 | 55.33608 | 82.59862 | 5284 ft | 289 kts | 138° |
| 2026-04-27 13:41 | 55.32112 | 82.62186 | 5115 ft | 286 kts | 138° |
| 2026-04-27 13:42 | 55.30594 | 82.64532 | 4935 ft | 286 kts | 138° |
| 2026-04-27 13:42 | 55.29072 | 82.66882 | 4736 ft | 288 kts | 139° |
| 2026-04-27 13:42 | 55.27553 | 82.69223 | 4724 ft | 282 kts | 139° |
| 2026-04-27 13:42 | 55.26053 | 82.71527 | 4863 ft | 291 kts | 139° |
| 2026-04-27 13:43 | 55.24546 | 82.73837 | 5006 ft | 273 kts | 139° |
| 2026-04-27 13:43 | 55.23140 | 82.75990 | 4993 ft | 263 kts | 139° |
| 2026-04-27 13:43 | 55.21703 | 82.78185 | 5012 ft | 274 kts | 139° |
| 2026-04-27 13:43 | 55.20284 | 82.80352 | 4987 ft | 262 kts | 139° |
| 2026-04-27 13:44 | 55.18946 | 82.82392 | 4992 ft | 253 kts | 139° |
| 2026-04-27 13:44 | 55.17542 | 82.84531 | 5006 ft | 259 kts | 139° |
| 2026-04-27 13:44 | 55.16110 | 82.86681 | 5005 ft | 271 kts | 143° |
| 2026-04-27 13:44 | 55.14465 | 82.88143 | 4963 ft | 255 kts | 166° |
| 2026-04-27 13:45 | 55.12666 | 82.88659 | 4633 ft | 257 kts | 171° |
| 2026-04-27 13:45 | 55.10953 | 82.89411 | 4286 ft | 248 kts | 168° |
| 2026-04-27 13:45 | 55.09267 | 82.89435 | 3904 ft | 240 kts | 194° |
| 2026-04-27 13:45 | 55.07653 | 82.88663 | 3535 ft | 239 kts | 193° |
| 2026-04-27 13:46 | 55.05944 | 82.88506 | 3153 ft | 242 kts | 172° |
| 2026-04-27 13:46 | 55.04284 | 82.89041 | 2798 ft | 239 kts | 169° |
| 2026-04-27 13:46 | 55.02631 | 82.89638 | 2426 ft | 241 kts | 169° |
| 2026-04-27 13:46 | 55.00927 | 82.90309 | 2240 ft | 251 kts | 167° |
| 2026-04-27 13:47 | 54.99280 | 82.91109 | 2322 ft | 254 kts | 164° |
| 2026-04-27 13:47 | 54.97665 | 82.92380 | 2474 ft | 246 kts | 141° |
| 2026-04-27 13:47 | 54.96587 | 82.94862 | 2517 ft | 251 kts | 111° |
| 2026-04-27 13:47 | 54.96382 | 82.97887 | 2497 ft | 258 kts | 79° |
| 2026-04-27 13:48 | 54.96922 | 83.00739 | 2491 ft | 235 kts | 73° |
| 2026-04-27 13:48 | 54.97209 | 83.03439 | 2531 ft | 209 kts | 79° |
| 2026-04-27 13:48 | 54.97427 | 83.05803 | 2480 ft | 186 kts | 78° |
| 2026-04-27 13:48 | 54.97612 | 83.07916 | 2460 ft | 163 kts | 79° |
| 2026-04-27 13:49 | 54.97787 | 83.09763 | 2447 ft | 145 kts | 76° |
| 2026-04-27 13:49 | 54.98236 | 83.11458 | 2569 ft | 150 kts | 45° |
| 2026-04-27 13:49 | 54.99181 | 83.12270 | 2718 ft | 148 kts | 2° |
| 2026-04-27 13:49 | 55.00167 | 83.11762 | 2678 ft | 147 kts | 320° |
| 2026-04-27 13:50 | 55.00692 | 83.10295 | 2551 ft | 147 kts | 281° |
| 2026-04-27 13:50 | 55.00596 | 83.08564 | 2379 ft | 151 kts | 254° |
| 2026-04-27 13:50 | 55.00310 | 83.06840 | 2160 ft | 143 kts | 264° |
| 2026-04-27 13:50 | 55.00528 | 83.05177 | 1934 ft | 146 kts | 305° |
| 2026-04-27 13:51 | 55.01306 | 83.04256 | 2037 ft | 143 kts | 344° |
| 2026-04-27 13:51 | 55.02344 | 83.04238 | 2078 ft | 152 kts | 7° |
| 2026-04-27 13:51 | 55.03345 | 83.04174 | 1960 ft | 143 kts | 332° |
| 2026-04-27 13:51 | 55.03979 | 83.02958 | 2064 ft | 135 kts | 292° |
| 2026-04-27 13:52 | 55.04047 | 83.01273 | 2048 ft | 141 kts | 255° |
| 2026-04-27 13:52 | 55.03609 | 82.99591 | 2059 ft | 149 kts | 252° |
| 2026-04-27 13:52 | 55.03448 | 82.97930 | 2017 ft | 142 kts | 269° |
| 2026-04-27 13:52 | 55.03431 | 82.96275 | 1974 ft | 147 kts | 271° |
| 2026-04-27 13:53 | 55.03453 | 82.92803 | 2182 ft | 130 kts | 275° |
| 2026-04-27 13:53 | 55.03502 | 82.91056 | 2072 ft | 149 kts | 271° |
| 2026-04-27 13:53 | 55.03423 | 82.89341 | 1870 ft | 142 kts | 263° |
| 2026-04-27 13:54 | 55.03296 | 82.87551 | 1754 ft | 136 kts | 265° |
| 2026-04-27 13:54 | 55.03153 | 82.85917 | 1629 ft | 146 kts | 261° |
| 2026-04-27 13:54 | 55.02985 | 82.84208 | 1590 ft | 146 kts | 261° |
| 2026-04-27 13:54 | 55.02811 | 82.82425 | 1701 ft | 140 kts | 262° |
| 2026-04-27 13:55 | 55.02657 | 82.80720 | 1769 ft | 146 kts | 262° |
| 2026-04-27 13:55 | 55.02519 | 82.79040 | 1832 ft | 144 kts | 263° |
| 2026-04-27 13:55 | 55.02359 | 82.77261 | 1742 ft | 136 kts | 261° |
| 2026-04-27 13:55 | 55.02188 | 82.75479 | 1319 ft | 141 kts | 262° |
| 2026-04-27 13:56 | 55.02015 | 82.73718 | 1086 ft | 149 kts | 262° |
| 2026-04-27 13:56 | 55.01864 | 82.71993 | 885 ft | 140 kts | 262° |
| 2026-04-27 13:56 | 55.01712 | 82.70255 | 711 ft | 150 kts | 262° |
| 2026-04-27 13:56 | 55.01556 | 82.68538 | 512 ft | 132 kts | 261° |
| 2026-04-27 13:57 | 55.01426 | 82.67062 | 362 ft | 115 kts | 261° |
| 2026-04-27 13:57 | 55.01337 | 82.66077 | 357 ft | 30 kts | 262° |
| 2026-04-27 13:57 | 55.01310 | 82.65752 | 357 ft | 31 kts | 259° |
| 2026-04-27 13:57 | 55.01265 | 82.65284 | 357 ft | 43 kts | 262° |
| 2026-04-27 13:58 | 55.01208 | 82.65060 | 357 ft | 10 kts | 200° |
| 2026-04-27 13:58 | 55.01096 | 82.65080 | 357 ft | 21 kts | 172° |
| 2026-04-27 13:58 | 55.01056 | 82.65090 | 357 ft | 0 kts | 171° |
| 2026-04-27 14:00 | 55.01055 | 82.65091 | 357 ft | 0 kts | 171° |
| 2026-04-27 14:00 | 55.01035 | 82.65096 | 357 ft | 5 kts | 171° |
| 2026-04-27 14:01 | 55.00984 | 82.65111 | 357 ft | 9 kts | 171° |
| 2026-04-27 14:01 | 55.00918 | 82.65131 | 357 ft | 8 kts | 161° |
| 2026-04-27 14:01 | 55.00882 | 82.65222 | 358 ft | 10 kts | 89° |
| 2026-04-27 14:01 | 55.00891 | 82.65369 | 359 ft | 14 kts | 80° |
| 2026-04-27 14:02 | 55.00912 | 82.65588 | 362 ft | 23 kts | 81° |
| 2026-04-27 14:02 | 55.00943 | 82.65942 | 361 ft | 31 kts | 82° |
| 2026-04-27 14:02 | 55.00966 | 82.66125 | 361 ft | 11 kts | 73° |
| 2026-04-27 14:02 | 55.00971 | 82.66151 | 361 ft | 0 kts | 72° |
| 2026-04-27 14:05 | 55.00972 | 82.66154 | 361 ft | 1 kts | 71° |
| 2026-04-27 14:05 | 55.00983 | 82.66203 | 361 ft | 6 kts | 70° |